• Join FlightAware (Why Join?)
  • Login
  • US Flag 
11:23PM EDT


 

Airport Tracker/Info


-or-


 

Live Flight TrackerFlight Track Log ✈ SKW5592 ✈ 12-May-2012 ✈ KDEN - KGTF

Flight Track Log - Related Links

Times and Time Zones

All times are in EDT time to prevent confusion due to time zone crossing. See the SKW5592 flight status page for this flight to view local times or setup timezone preferences in your user account.

Time Position Orientation Groundspeed Altitude Reporting Facility
EDT Latitude Longitude Course Direction KTS MPH feet Rate Location/Type
09:37PM 39.9167 -104.6833 356° North 197 227 6,800  Level Denver TRACON
09:42PM 40.3097 -104.7206 358° North 339 390 16,100 1,920 Climbing Denver Center
09:43PM 40.4039 -104.7242 358° North 339 390 17,800 1,260 Climbing Denver Center
09:44PM 40.5028 -104.7286 358° North 351 404 18,800 1,140 Climbing Denver Center
09:45PM 40.6106 -104.7336 358° North 360 414 20,200 1,200 Climbing Denver Center
09:46PM 40.7147 -104.7378 357° North 371 427 21,300 1,020 Climbing Denver Center
09:47PM 40.8183 -104.7439 359° North 372 428 22,400 1,020 Climbing Denver Center
09:48PM 40.9294 -104.7461 357° North 391 450 23,400 780 Climbing Denver Center
09:49PM 41.0389 -104.7544 355° North 392 451 24,100 780 Climbing Denver Center
09:50PM 41.1644 -104.7678 337° Northwest 400 460 25,100 840 Climbing Denver Center
09:51PM 41.2594 -104.8211 326° Northwest 396 456 25,900 780 Climbing Denver Center
09:52PM 41.3606 -104.9111 325° Northwest 392 451 26,800 780 Climbing Denver Center
09:53PM 41.4475 -104.9922 325° Northwest 395 455 27,500 540 Climbing Denver Center
09:54PM 41.5350 -105.0733 326° Northwest 398 458 28,000 480 Climbing Denver Center
09:55PM 41.6406 -105.1703 325° Northwest 408 470 28,600 480 Climbing Denver Center
09:56PM 41.7317 -105.2547 324° Northwest 413 475 29,100 480 Climbing Denver Center
09:57PM 41.8381 -105.3567 325° Northwest 416 479 29,600 480 Climbing Denver Center
09:58PM 41.9294 -105.4431 325° Northwest 418 481 30,100 480 Climbing Denver Center
09:59PM 42.0219 -105.5294 325° Northwest 421 484 30,600 480 Climbing Denver Center
10:00PM 42.1281 -105.6311 325° Northwest 418 481 31,200 480 Climbing Denver Center
10:01PM 42.2194 -105.7183 325° Northwest 419 482 31,600 360 Climbing Denver Center
10:02PM 42.3256 -105.8206 324° Northwest 419 482 32,000 180 Climbing Denver Center
10:03PM 42.4169 -105.9092 325° Northwest 420 483 32,000  Level Denver Center
10:04PM 42.5117 -105.9997 324° Northwest 429 494 32,000  Level Denver Center
10:05PM 42.6208 -106.1067 324° Northwest 432 497 32,000  Level Denver Center
10:06PM 42.7156 -106.1994 325° Northwest 436 502 32,000  Level Denver Center
10:07PM 42.8264 -106.3061 324° Northwest 436 502 32,000  Level Denver Center
10:08PM 42.9211 -106.3997 324° Northwest 439 505 32,000  Level Denver Center
10:09PM 43.0161 -106.4931 324° Northwest 439 505 32,000  Level Denver Center
10:10PM 43.1264 -106.6028 324° Northwest 439 505 32,000  Level Denver Center
10:12PM 43.2214 -106.6969 324° Northwest 441 507 32,000  Level Denver Center
10:12PM 43.3150 -106.7917 324° Northwest 439 505 32,000  Level Salt Lake Center
10:13PM 43.4094 -106.8864 324° Northwest 438 504 32,000  Level Salt Lake Center
10:14PM 43.5042 -106.9814 324° Northwest 438 504 32,000  Level Salt Lake Center
10:15PM 43.6131 -107.0925 324° Northwest 437 503 32,000  Level Salt Lake Center
10:16PM 43.7072 -107.1883 323° Northwest 439 505 32,000  Level Salt Lake Center
10:17PM 43.8003 -107.2847 324° Northwest 438 504 32,000  Level Salt Lake Center
10:19PM 43.9106 -107.3978 323° Northwest 440 506 32,000  Level Salt Lake Center
10:20PM 44.0047 -107.4956 324° Northwest 441 507 32,000  Level Salt Lake Center
10:21PM 44.1172 -107.6081 323° Northwest 444 511 32,000  Level Salt Lake Center
10:22PM 44.2119 -107.7061 323° Northwest 443 510 32,000  Level Salt Lake Center
10:23PM 44.3056 -107.8050 323° Northwest 441 507 32,000  Level Salt Lake Center
10:24PM 44.4169 -107.9206 323° Northwest 442 509 32,000  Level Salt Lake Center
10:25PM 44.5128 -108.0203 323° Northwest 445 512 32,000  Level Salt Lake Center
10:26PM 44.6222 -108.1381 323° Northwest 441 507 32,000  Level Salt Lake Center
10:27PM 44.7186 -108.2392 323° Northwest 443 510 32,000  Level Salt Lake Center
10:28PM 44.8144 -108.3411 323° Northwest 445 512 32,000  Level Salt Lake Center
10:29PM 44.9264 -108.4589 323° Northwest 446 513 32,000  Level Salt Lake Center
10:30PM 45.0219 -108.5611 322° Northwest 447 514 32,000  Level Salt Lake Center
10:31PM 45.1142 -108.6625 323° Northwest 442 509 32,000  Level Salt Lake Center
10:32PM 45.2247 -108.7819 323° Northwest 444 511 32,000  Level Salt Lake Center
10:33PM 45.3197 -108.8847 322° Northwest 447 514 32,000  Level Salt Lake Center
10:34PM 45.4139 -108.9881 322° Northwest 447 514 32,000  Level Salt Lake Center
10:35PM 45.5067 -109.0900 322° Northwest 441 507 32,000  Level Salt Lake Center
10:36PM 45.6122 -109.2081 322° Northwest 433 498 32,000  Level Salt Lake Center
10:37PM 45.7183 -109.3250 322° Northwest 431 496 32,000  Level Salt Lake Center
10:38PM 45.8094 -109.4258 323° Northwest 432 497 32,000  Level Salt Lake Center
10:39PM 45.9011 -109.5267 322° Northwest 433 498 32,000  Level Salt Lake Center
10:40PM 46.0075 -109.6461 322° Northwest 434 499 32,000  Level Salt Lake Center
10:41PM 46.0989 -109.7481 321° Northwest 434 499 32,000  Level Salt Lake Center
10:42PM 46.2039 -109.8700 322° Northwest 434 499 32,000  Level Salt Lake Center
10:43PM 46.2939 -109.9733 322° Northwest 432 497 32,000  Level Salt Lake Center
10:44PM 46.3836 -110.0758 322° Northwest 431 496 32,000  Level Salt Lake Center
10:45PM 46.4889 -110.1972 322° Northwest 431 496 32,000 -240 Level Salt Lake Center
10:46PM 46.5939 -110.3186 321° Northwest 431 496 31,500 -1,740 Descending Salt Lake Center
10:47PM 46.6978 -110.4397 323° Northwest 430 495 28,500 -2,820 Descending Salt Lake Center
10:48PM 46.7931 -110.5464 321° Northwest 426 490 25,800 -2,640 Descending Salt Lake Center
10:49PM 46.8825 -110.6511 321° Northwest 417 480 23,200 -2,580 Descending Salt Lake Center
10:50PM 46.9689 -110.7536 322° Northwest 408 470 20,600 -2,580 Descending Salt Lake Center
10:51PM 47.0539 -110.8519 317° Northwest 399 459 18,000 -2,520 Descending Salt Lake Center
10:52PM 47.1300 -110.9578 313° West 389 448 15,500 -2,640 Descending Salt Lake Center
10:53PM 47.1981 -111.0653 316° Northwest 370 426 12,700 -2,580 Descending Salt Lake Center
10:54PM 47.2661 -111.1628 312° West 355 409 10,300 -1,920 Descending Salt Lake Center
10:56PM 47.3197 -111.2508 309° West 314 361 8,900 -1,740 Descending Salt Lake Center
10:57PM 47.3658 -111.3356 311° West 279 321 6,800 -1,620 Descending Salt Lake Center
10:58PM 47.4042 -111.4017 350° North 230 265 5,700 -1,320 Descending Salt Lake Center
10:59PM 47.4481 -111.4133 44° Northeast 188 216 4,200 -1,080 Descending Salt Lake Center
11:00PM 47.4819 -111.3656 44° Northeast 146 168 3,600 -600 Descending Salt Lake Center